Selawik, AK

6:27 AM AKDT on August 27, 2014 (GMT -0800)
RAWS SELAWIK AK US | Change Station
CLOSE
Current Station
Personal Weather Station
Location: Selawik, AK
Elevation: 104 ft
Nearby Weather Stations

Elev 104 ft 66.61 °N, 159.09 °W | Updated 38 minutes ago

Overcast
Overcast
46 °F
Feels Like 46 °F
N
2
Wind Variable Wind from SE
Gusts 6.0 mph

Today
High -- | Low -- °F
--% Chance of Precip.
Yesterday
High -- | Low -- °F
Precip. -- in
6:56 AM 10:23 PM
Waxing Crescent, 4% visible
Pressure 29.86 in
Visibility 10.0 miles
Clouds Mostly Cloudy 2000 ft
Overcast 5000 ft
Windchill 46 °F
Dew Point 46 °F
Humidity 100%
Rainfall 0.00 in
Snow Depth Not available.
UV 0 out of 12
Pollen Not available.
Air Quality Not available.
Flu Activity Not available.
METAR PAIK 271407Z AUTO 00000KT 10SM BKN020 OVC050 07/07 A2974 RMK AO2 SLP111 T00720067 PNO $

More Conditions Fewer Conditions

Pressure 29.86 in
Visibility 10.0 miles
Clouds Mostly Cloudy 2000 ft
Overcast 5000 ft
Windchill 46 °F
Dew Point 46 °F
Humidity 100%
Rainfall 0.00 in
Snow Depth Not available.
UV 0 out of 12
Pollen Not available.
Air Quality Not available.
Flu Activity Not available.
METAR PAIK 271407Z AUTO 00000KT 10SM BKN020 OVC050 07/07 A2974 RMK AO2 SLP111 T00720067 PNO $

More Conditions Fewer Conditions

10-Day Weather Forecast

Almanac

Astronomy

Aug. 27, 2014 Rise Set
Actual Time 6:56 AM AKDT 10:23 PM AKDT
Civil Twilight 5:52 AM AKDT 11:27 PM AKDT
Nautical Twilight 4:02 AM AKDT 1:11 AM AKDT
Astronomical Twilight Sun does not rise Sun does not rise
Moon 10:16 AM AKDT 9:59 PM AKDT
Length of Visible Light 17h 34m
Length of Day
15h 27m
Tomorrow will be 7m 28s shorter.
Waxing Crescent, 4% of the Moon is Illuminated
Today
Waxing Crescent
Sep 2
First Quarter
Sep 8
Full
Sep 15
Last Quarter
Sep 24
New

Today's Extremes

State Highs State Lows

Community

WunderPhotos

Upload Photos

1,747,690 photos uploaded!

Nearby

Snow Depth

Station Depth Elevation
Rocky Point 4 in 500 ft
Coldfoot 1 in 1040 ft
Atigun Pass 0 in 4800 ft
Little Chena Ridge 1 in 2000 ft
Fort Yukon 2 in 430 ft

Earthquake Activity

City Distance Mag. Time & Date
No recent earthquake activity has been reported nearby.
Minimum magnitude displayed is 2.5.

Coastal Water Temperatures

Place Temperature
No Stations Reporting

Nearby Weather Stations